sensor_id;sensor_type;location;lat;lon;timestamp;P1;durP1;ratioP1;P2;durP2;ratioP2
26820;SDS011;37186;51.394;5.454;2023-09-19T00:01:11;2.70;;;2.65;;
26820;SDS011;37186;51.394;5.454;2023-09-19T00:04:12;2.55;;;2.55;;
26820;SDS011;37186;51.394;5.454;2023-09-19T00:07:14;3.10;;;3.00;;
26820;SDS011;37186;51.394;5.454;2023-09-19T00:10:16;2.90;;;2.80;;
26820;SDS011;37186;51.394;5.454;2023-09-19T00:13:17;2.90;;;2.80;;
26820;SDS011;37186;51.394;5.454;2023-09-19T00:16:18;2.90;;;2.80;;
26820;SDS011;37186;51.394;5.454;2023-09-19T00:19:19;2.80;;;2.70;;
26820;SDS011;37186;51.394;5.454;2023-09-19T00:22:20;2.58;;;2.58;;
26820;SDS011;37186;51.394;5.454;2023-09-19T00:25:20;2.60;;;2.60;;
26820;SDS011;37186;51.394;5.454;2023-09-19T00:28:21;2.80;;;2.72;;
26820;SDS011;37186;51.394;5.454;2023-09-19T00:31:21;2.90;;;2.80;;
26820;SDS011;37186;51.394;5.454;2023-09-19T00:34:25;2.80;;;2.70;;
26820;SDS011;37186;51.394;5.454;2023-09-19T00:37:26;2.92;;;2.83;;
26820;SDS011;37186;51.394;5.454;2023-09-19T00:40:26;2.80;;;2.70;;
26820;SDS011;37186;51.394;5.454;2023-09-19T00:43:27;2.90;;;2.80;;
26820;SDS011;37186;51.394;5.454;2023-09-19T00:46:27;2.60;;;2.60;;
26820;SDS011;37186;51.394;5.454;2023-09-19T00:49:28;2.90;;;2.80;;
26820;SDS011;37186;51.394;5.454;2023-09-19T00:52:30;2.80;;;2.70;;
26820;SDS011;37186;51.394;5.454;2023-09-19T00:55:32;2.55;;;2.55;;
26820;SDS011;37186;51.394;5.454;2023-09-19T00:58:33;2.75;;;2.67;;
26820;SDS011;37186;51.394;5.454;2023-09-19T01:01:35;2.88;;;2.78;;
26820;SDS011;37186;51.394;5.454;2023-09-19T01:04:39;2.88;;;2.78;;
26820;SDS011;37186;51.394;5.454;2023-09-19T01:07:40;2.55;;;2.55;;
26820;SDS011;37186;51.394;5.454;2023-09-19T01:10:46;2.58;;;2.58;;
26820;SDS011;37186;51.394;5.454;2023-09-19T01:17:31;2.45;;;2.45;;
26820;SDS011;37186;51.394;5.454;2023-09-19T01:20:40;2.45;;;2.45;;
26820;SDS011;37186;51.394;5.454;2023-09-19T01:30:56;2.42;;;2.42;;
26820;SDS011;37186;51.394;5.454;2023-09-19T01:34:00;2.80;;;2.70;;
26820;SDS011;37186;51.394;5.454;2023-09-19T01:37:01;2.60;;;2.60;;
26820;SDS011;37186;51.394;5.454;2023-09-19T01:40:02;2.40;;;2.40;;
26820;SDS011;37186;51.394;5.454;2023-09-19T01:46:34;2.55;;;2.55;;
26820;SDS011;37186;51.394;5.454;2023-09-19T01:52:48;2.42;;;2.42;;
26820;SDS011;37186;51.394;5.454;2023-09-19T01:55:57;2.30;;;2.30;;
26820;SDS011;37186;51.394;5.454;2023-09-19T01:58:59;2.28;;;2.28;;
26820;SDS011;37186;51.394;5.454;2023-09-19T02:02:06;2.28;;;2.28;;
26820;SDS011;37186;51.394;5.454;2023-09-19T02:05:07;2.30;;;2.30;;
26820;SDS011;37186;51.394;5.454;2023-09-19T02:08:08;2.33;;;2.33;;
26820;SDS011;37186;51.394;5.454;2023-09-19T02:11:08;2.47;;;2.47;;
26820;SDS011;37186;51.394;5.454;2023-09-19T02:14:09;2.50;;;2.50;;
26820;SDS011;37186;51.394;5.454;2023-09-19T02:17:09;2.60;;;2.60;;
26820;SDS011;37186;51.394;5.454;2023-09-19T02:20:13;2.63;;;2.63;;
26820;SDS011;37186;51.394;5.454;2023-09-19T02:23:14;2.67;;;2.60;;
26820;SDS011;37186;51.394;5.454;2023-09-19T02:26:15;2.50;;;2.50;;
26820;SDS011;37186;51.394;5.454;2023-09-19T02:29:16;2.40;;;2.40;;
26820;SDS011;37186;51.394;5.454;2023-09-19T02:32:16;2.45;;;2.45;;
26820;SDS011;37186;51.394;5.454;2023-09-19T02:35:18;2.58;;;2.58;;
26820;SDS011;37186;51.394;5.454;2023-09-19T02:38:19;2.45;;;2.45;;
26820;SDS011;37186;51.394;5.454;2023-09-19T02:41:24;2.50;;;2.50;;
26820;SDS011;37186;51.394;5.454;2023-09-19T02:44:25;2.33;;;2.33;;
26820;SDS011;37186;51.394;5.454;2023-09-19T02:47:25;2.40;;;2.40;;
26820;SDS011;37186;51.394;5.454;2023-09-19T02:50:27;2.75;;;2.70;;
26820;SDS011;37186;51.394;5.454;2023-09-19T02:53:27;2.55;;;2.55;;
26820;SDS011;37186;51.394;5.454;2023-09-19T02:56:28;2.50;;;2.50;;
26820;SDS011;37186;51.394;5.454;2023-09-19T02:59:31;2.40;;;2.40;;
26820;SDS011;37186;51.394;5.454;2023-09-19T03:02:32;2.30;;;2.30;;
26820;SDS011;37186;51.394;5.454;2023-09-19T03:05:34;2.30;;;2.30;;
26820;SDS011;37186;51.394;5.454;2023-09-19T03:08:35;2.40;;;2.40;;
26820;SDS011;37186;51.394;5.454;2023-09-19T03:11:38;2.35;;;2.35;;
26820;SDS011;37186;51.394;5.454;2023-09-19T03:14:40;2.30;;;2.30;;
26820;SDS011;37186;51.394;5.454;2023-09-19T03:17:44;2.50;;;2.50;;
26820;SDS011;37186;51.394;5.454;2023-09-19T03:20:52;2.53;;;2.53;;
26820;SDS011;37186;51.394;5.454;2023-09-19T03:23:54;2.22;;;2.22;;
26820;SDS011;37186;51.394;5.454;2023-09-19T03:26:55;2.40;;;2.40;;
26820;SDS011;37186;51.394;5.454;2023-09-19T03:29:55;2.40;;;2.40;;
26820;SDS011;37186;51.394;5.454;2023-09-19T03:32:56;2.33;;;2.33;;
26820;SDS011;37186;51.394;5.454;2023-09-19T03:35:56;2.30;;;2.30;;
26820;SDS011;37186;51.394;5.454;2023-09-19T03:38:59;2.30;;;2.30;;
26820;SDS011;37186;51.394;5.454;2023-09-19T03:41:59;2.30;;;2.30;;
26820;SDS011;37186;51.394;5.454;2023-09-19T03:45:00;2.35;;;2.35;;
26820;SDS011;37186;51.394;5.454;2023-09-19T03:48:10;2.35;;;2.35;;
26820;SDS011;37186;51.394;5.454;2023-09-19T03:51:10;2.33;;;2.33;;
26820;SDS011;37186;51.394;5.454;2023-09-19T03:54:11;2.38;;;2.38;;
26820;SDS011;37186;51.394;5.454;2023-09-19T03:57:12;2.40;;;2.40;;
26820;SDS011;37186;51.394;5.454;2023-09-19T04:00:15;2.20;;;2.20;;
26820;SDS011;37186;51.394;5.454;2023-09-19T04:03:21;2.40;;;2.40;;
26820;SDS011;37186;51.394;5.454;2023-09-19T04:06:21;2.30;;;2.30;;
26820;SDS011;37186;51.394;5.454;2023-09-19T04:09:22;2.30;;;2.30;;
26820;SDS011;37186;51.394;5.454;2023-09-19T04:12:22;2.20;;;2.20;;
26820;SDS011;37186;51.394;5.454;2023-09-19T04:15:23;2.30;;;2.30;;
26820;SDS011;37186;51.394;5.454;2023-09-19T04:18:24;2.22;;;2.22;;
26820;SDS011;37186;51.394;5.454;2023-09-19T04:21:25;2.50;;;2.50;;
26820;SDS011;37186;51.394;5.454;2023-09-19T04:24:26;2.40;;;2.40;;
26820;SDS011;37186;51.394;5.454;2023-09-19T04:27:27;2.20;;;2.20;;
26820;SDS011;37186;51.394;5.454;2023-09-19T04:30:27;2.45;;;2.45;;
26820;SDS011;37186;51.394;5.454;2023-09-19T04:33:28;2.45;;;2.45;;
26820;SDS011;37186;51.394;5.454;2023-09-19T04:36:28;2.40;;;2.40;;
26820;SDS011;37186;51.394;5.454;2023-09-19T04:39:29;2.30;;;2.30;;
26820;SDS011;37186;51.394;5.454;2023-09-19T04:42:30;2.25;;;2.25;;
26820;SDS011;37186;51.394;5.454;2023-09-19T04:45:31;2.30;;;2.30;;
26820;SDS011;37186;51.394;5.454;2023-09-19T04:48:32;2.40;;;2.40;;
26820;SDS011;37186;51.394;5.454;2023-09-19T04:51:34;2.30;;;2.30;;
26820;SDS011;37186;51.394;5.454;2023-09-19T04:54:36;2.30;;;2.30;;
26820;SDS011;37186;51.394;5.454;2023-09-19T04:57:37;2.30;;;2.30;;
26820;SDS011;37186;51.394;5.454;2023-09-19T05:00:38;2.40;;;2.40;;
26820;SDS011;37186;51.394;5.454;2023-09-19T05:03:39;2.40;;;2.40;;
26820;SDS011;37186;51.394;5.454;2023-09-19T05:06:39;2.40;;;2.40;;
26820;SDS011;37186;51.394;5.454;2023-09-19T05:09:40;2.28;;;2.28;;
26820;SDS011;37186;51.394;5.454;2023-09-19T05:12:42;2.28;;;2.28;;
26820;SDS011;37186;51.394;5.454;2023-09-19T05:15:47;2.50;;;2.50;;
26820;SDS011;37186;51.394;5.454;2023-09-19T05:18:47;2.30;;;2.30;;
26820;SDS011;37186;51.394;5.454;2023-09-19T05:21:49;2.30;;;2.30;;
26820;SDS011;37186;51.394;5.454;2023-09-19T05:24:50;2.40;;;2.40;;
26820;SDS011;37186;51.394;5.454;2023-09-19T05:27:53;2.30;;;2.30;;
26820;SDS011;37186;51.394;5.454;2023-09-19T05:30:53;2.33;;;2.33;;
26820;SDS011;37186;51.394;5.454;2023-09-19T05:33:54;2.38;;;2.38;;
26820;SDS011;37186;51.394;5.454;2023-09-19T05:36:55;2.20;;;2.20;;
26820;SDS011;37186;51.394;5.454;2023-09-19T05:39:55;2.40;;;2.40;;
26820;SDS011;37186;51.394;5.454;2023-09-19T05:42:57;2.33;;;2.33;;
26820;SDS011;37186;51.394;5.454;2023-09-19T05:45:59;2.30;;;2.30;;
26820;SDS011;37186;51.394;5.454;2023-09-19T05:49:00;2.20;;;2.20;;
26820;SDS011;37186;51.394;5.454;2023-09-19T05:52:00;2.30;;;2.30;;
26820;SDS011;37186;51.394;5.454;2023-09-19T05:55:01;2.38;;;2.38;;
26820;SDS011;37186;51.394;5.454;2023-09-19T05:58:05;2.50;;;2.50;;
26820;SDS011;37186;51.394;5.454;2023-09-19T06:01:05;2.38;;;2.38;;
26820;SDS011;37186;51.394;5.454;2023-09-19T06:04:07;2.38;;;2.38;;
26820;SDS011;37186;51.394;5.454;2023-09-19T06:07:08;2.40;;;2.40;;
26820;SDS011;37186;51.394;5.454;2023-09-19T06:10:08;2.40;;;2.40;;
26820;SDS011;37186;51.394;5.454;2023-09-19T06:13:10;2.30;;;2.30;;
26820;SDS011;37186;51.394;5.454;2023-09-19T06:16:11;2.30;;;2.30;;
26820;SDS011;37186;51.394;5.454;2023-09-19T06:19:11;2.45;;;2.45;;
26820;SDS011;37186;51.394;5.454;2023-09-19T06:22:14;2.50;;;2.50;;
26820;SDS011;37186;51.394;5.454;2023-09-19T06:25:18;2.40;;;2.40;;
26820;SDS011;37186;51.394;5.454;2023-09-19T06:28:19;2.50;;;2.50;;
26820;SDS011;37186;51.394;5.454;2023-09-19T06:31:24;2.60;;;2.60;;
26820;SDS011;37186;51.394;5.454;2023-09-19T06:34:26;2.40;;;2.40;;
26820;SDS011;37186;51.394;5.454;2023-09-19T06:37:27;2.30;;;2.30;;
26820;SDS011;37186;51.394;5.454;2023-09-19T06:40:28;2.30;;;2.30;;
26820;SDS011;37186;51.394;5.454;2023-09-19T06:43:31;2.35;;;2.35;;
26820;SDS011;37186;51.394;5.454;2023-09-19T06:46:32;2.33;;;2.33;;
26820;SDS011;37186;51.394;5.454;2023-09-19T06:49:35;2.10;;;2.10;;
26820;SDS011;37186;51.394;5.454;2023-09-19T06:52:35;2.38;;;2.38;;
26820;SDS011;37186;51.394;5.454;2023-09-19T06:55:36;2.20;;;2.20;;
26820;SDS011;37186;51.394;5.454;2023-09-19T06:58:36;2.50;;;2.50;;
26820;SDS011;37186;51.394;5.454;2023-09-19T07:01:37;2.35;;;2.35;;
26820;SDS011;37186;51.394;5.454;2023-09-19T07:04:38;2.50;;;2.50;;
26820;SDS011;37186;51.394;5.454;2023-09-19T07:07:38;2.28;;;2.28;;
26820;SDS011;37186;51.394;5.454;2023-09-19T07:10:40;2.30;;;2.30;;
26820;SDS011;37186;51.394;5.454;2023-09-19T07:13:42;2.40;;;2.40;;
26820;SDS011;37186;51.394;5.454;2023-09-19T07:16:43;2.30;;;2.30;;
26820;SDS011;37186;51.394;5.454;2023-09-19T07:19:44;2.30;;;2.30;;
26820;SDS011;37186;51.394;5.454;2023-09-19T07:22:45;2.22;;;2.22;;
26820;SDS011;37186;51.394;5.454;2023-09-19T07:25:47;2.30;;;2.30;;
26820;SDS011;37186;51.394;5.454;2023-09-19T07:28:48;2.20;;;2.20;;
26820;SDS011;37186;51.394;5.454;2023-09-19T07:31:49;2.20;;;2.20;;
26820;SDS011;37186;51.394;5.454;2023-09-19T07:34:49;2.35;;;2.35;;
26820;SDS011;37186;51.394;5.454;2023-09-19T07:37:50;2.22;;;2.22;;
26820;SDS011;37186;51.394;5.454;2023-09-19T07:40:59;2.33;;;2.33;;
26820;SDS011;37186;51.394;5.454;2023-09-19T07:44:00;2.35;;;2.35;;
26820;SDS011;37186;51.394;5.454;2023-09-19T07:47:01;2.30;;;2.30;;
26820;SDS011;37186;51.394;5.454;2023-09-19T07:50:03;2.30;;;2.30;;
26820;SDS011;37186;51.394;5.454;2023-09-19T07:53:04;2.33;;;2.33;;
26820;SDS011;37186;51.394;5.454;2023-09-19T07:56:05;2.28;;;2.28;;
26820;SDS011;37186;51.394;5.454;2023-09-19T07:59:06;2.30;;;2.30;;
26820;SDS011;37186;51.394;5.454;2023-09-19T08:02:08;2.40;;;2.40;;
26820;SDS011;37186;51.394;5.454;2023-09-19T08:05:15;2.50;;;2.50;;
26820;SDS011;37186;51.394;5.454;2023-09-19T08:08:16;2.45;;;2.45;;
26820;SDS011;37186;51.394;5.454;2023-09-19T08:11:16;2.70;;;2.70;;
26820;SDS011;37186;51.394;5.454;2023-09-19T08:14:21;2.90;;;2.80;;
26820;SDS011;37186;51.394;5.454;2023-09-19T08:17:24;2.60;;;2.60;;
26820;SDS011;37186;51.394;5.454;2023-09-19T08:20:25;2.70;;;2.70;;
26820;SDS011;37186;51.394;5.454;2023-09-19T08:23:26;2.97;;;2.88;;
26820;SDS011;37186;51.394;5.454;2023-09-19T08:26:27;3.08;;;2.97;;
26820;SDS011;37186;51.394;5.454;2023-09-19T08:29:28;3.20;;;3.10;;
26820;SDS011;37186;51.394;5.454;2023-09-19T08:32:29;3.03;;;2.92;;
26820;SDS011;37186;51.394;5.454;2023-09-19T08:35:30;3.20;;;3.10;;
26820;SDS011;37186;51.394;5.454;2023-09-19T08:38:31;3.20;;;3.10;;
26820;SDS011;37186;51.394;5.454;2023-09-19T08:41:35;3.10;;;3.00;;
26820;SDS011;37186;51.394;5.454;2023-09-19T08:44:36;3.40;;;3.30;;
26820;SDS011;37186;51.394;5.454;2023-09-19T08:47:44;3.10;;;3.00;;
26820;SDS011;37186;51.394;5.454;2023-09-19T08:53:58;3.30;;;3.20;;
26820;SDS011;37186;51.394;5.454;2023-09-19T08:57:09;3.22;;;3.13;;
26820;SDS011;37186;51.394;5.454;2023-09-19T09:00:11;3.33;;;3.22;;
26820;SDS011;37186;51.394;5.454;2023-09-19T09:03:14;3.22;;;3.13;;
26820;SDS011;37186;51.394;5.454;2023-09-19T09:06:20;3.30;;;3.20;;
26820;SDS011;37186;51.394;5.454;2023-09-19T09:09:20;3.17;;;3.08;;
26820;SDS011;37186;51.394;5.454;2023-09-19T09:12:21;3.20;;;3.10;;
26820;SDS011;37186;51.394;5.454;2023-09-19T09:15:22;3.13;;;3.03;;
26820;SDS011;37186;51.394;5.454;2023-09-19T09:18:23;3.08;;;2.97;;
26820;SDS011;37186;51.394;5.454;2023-09-19T09:21:24;3.17;;;3.08;;
26820;SDS011;37186;51.394;5.454;2023-09-19T09:24:29;3.40;;;3.30;;
26820;SDS011;37186;51.394;5.454;2023-09-19T09:27:30;3.15;;;3.05;;
26820;SDS011;37186;51.394;5.454;2023-09-19T09:30:34;3.20;;;3.10;;
26820;SDS011;37186;51.394;5.454;2023-09-19T09:33:37;3.22;;;3.13;;
26820;SDS011;37186;51.394;5.454;2023-09-19T09:36:39;3.50;;;3.40;;
26820;SDS011;37186;51.394;5.454;2023-09-19T09:39:53;3.28;;;3.17;;
26820;SDS011;37186;51.394;5.454;2023-09-19T09:42:56;3.10;;;3.00;;
26820;SDS011;37186;51.394;5.454;2023-09-19T09:49:32;3.30;;;3.20;;
26820;SDS011;37186;51.394;5.454;2023-09-19T09:52:46;3.55;;;3.45;;
26820;SDS011;37186;51.394;5.454;2023-09-19T09:56:03;3.67;;;3.58;;
26820;SDS011;37186;51.394;5.454;2023-09-19T09:59:07;3.67;;;3.58;;
26820;SDS011;37186;51.394;5.454;2023-09-19T10:02:08;3.47;;;3.38;;
26820;SDS011;37186;51.394;5.454;2023-09-19T10:05:14;3.65;;;3.55;;
26820;SDS011;37186;51.394;5.454;2023-09-19T10:08:28;4.03;;;3.92;;
26820;SDS011;37186;51.394;5.454;2023-09-19T10:11:31;3.65;;;3.55;;
26820;SDS011;37186;51.394;5.454;2023-09-19T10:14:33;4.15;;;4.05;;
26820;SDS011;37186;51.394;5.454;2023-09-19T10:17:38;4.35;;;4.25;;
26820;SDS011;37186;51.394;5.454;2023-09-19T10:20:46;4.40;;;4.30;;
26820;SDS011;37186;51.394;5.454;2023-09-19T10:23:48;4.55;;;4.45;;
26820;SDS011;37186;51.394;5.454;2023-09-19T10:26:52;4.55;;;4.45;;
26820;SDS011;37186;51.394;5.454;2023-09-19T10:29:54;4.80;;;4.70;;
26820;SDS011;37186;51.394;5.454;2023-09-19T10:33:03;5.20;;;5.10;;
26820;SDS011;37186;51.394;5.454;2023-09-19T10:36:08;5.40;;;5.30;;
26820;SDS011;37186;51.394;5.454;2023-09-19T10:39:12;5.28;;;5.18;;
26820;SDS011;37186;51.394;5.454;2023-09-19T10:42:19;5.15;;;5.05;;
26820;SDS011;37186;51.394;5.454;2023-09-19T10:45:20;6.05;;;5.85;;
26820;SDS011;37186;51.394;5.454;2023-09-19T10:48:22;5.38;;;5.28;;
26820;SDS011;37186;51.394;5.454;2023-09-19T10:51:25;4.90;;;4.80;;
26820;SDS011;37186;51.394;5.454;2023-09-19T10:54:38;4.43;;;4.32;;
26820;SDS011;37186;51.394;5.454;2023-09-19T10:57:44;4.40;;;4.30;;
26820;SDS011;37186;51.394;5.454;2023-09-19T11:00:52;4.50;;;4.40;;
26820;SDS011;37186;51.394;5.454;2023-09-19T11:04:20;4.03;;;3.92;;
26820;SDS011;37186;51.394;5.454;2023-09-19T11:07:22;4.20;;;4.10;;
26820;SDS011;37186;51.394;5.454;2023-09-19T11:13:46;3.75;;;3.65;;
26820;SDS011;37186;51.394;5.454;2023-09-19T11:20:21;3.78;;;3.67;;
26820;SDS011;37186;51.394;5.454;2023-09-19T11:23:22;3.50;;;3.40;;
26820;SDS011;37186;51.394;5.454;2023-09-19T11:26:46;3.38;;;3.28;;
26820;SDS011;37186;51.394;5.454;2023-09-19T11:29:48;3.40;;;3.30;;
26820;SDS011;37186;51.394;5.454;2023-09-19T11:33:29;3.28;;;3.17;;
26820;SDS011;37186;51.394;5.454;2023-09-19T11:36:36;3.05;;;2.95;;
26820;SDS011;37186;51.394;5.454;2023-09-19T11:39:38;3.10;;;3.00;;
26820;SDS011;37186;51.394;5.454;2023-09-19T11:42:48;3.00;;;2.90;;
26820;SDS011;37186;51.394;5.454;2023-09-19T11:49:05;2.75;;;2.67;;
26820;SDS011;37186;51.394;5.454;2023-09-19T11:52:18;2.80;;;2.72;;
26820;SDS011;37186;51.394;5.454;2023-09-19T11:55:24;2.80;;;2.70;;
26820;SDS011;37186;51.394;5.454;2023-09-19T11:58:30;2.78;;;2.70;;
26820;SDS011;37186;51.394;5.454;2023-09-19T12:01:33;3.10;;;3.00;;
26820;SDS011;37186;51.394;5.454;2023-09-19T12:04:38;2.95;;;2.85;;
26820;SDS011;37186;51.394;5.454;2023-09-19T12:07:44;3.15;;;3.05;;
26820;SDS011;37186;51.394;5.454;2023-09-19T12:10:47;2.90;;;2.80;;
26820;SDS011;37186;51.394;5.454;2023-09-19T12:13:50;3.13;;;3.03;;
26820;SDS011;37186;51.394;5.454;2023-09-19T12:16:57;2.85;;;2.75;;
26820;SDS011;37186;51.394;5.454;2023-09-19T12:19:58;2.97;;;2.88;;
26820;SDS011;37186;51.394;5.454;2023-09-19T12:22:59;2.97;;;2.88;;
26820;SDS011;37186;51.394;5.454;2023-09-19T12:26:01;2.90;;;2.80;;
26820;SDS011;37186;51.394;5.454;2023-09-19T12:29:12;3.33;;;3.22;;
26820;SDS011;37186;51.394;5.454;2023-09-19T12:32:33;3.42;;;3.33;;
26820;SDS011;37186;51.394;5.454;2023-09-19T12:35:34;3.40;;;3.30;;
26820;SDS011;37186;51.394;5.454;2023-09-19T12:38:35;3.70;;;3.60;;
26820;SDS011;37186;51.394;5.454;2023-09-19T12:41:37;3.35;;;3.25;;
26820;SDS011;37186;51.394;5.454;2023-09-19T12:44:38;3.33;;;3.22;;
26820;SDS011;37186;51.394;5.454;2023-09-19T12:51:35;4.40;;;4.30;;
26820;SDS011;37186;51.394;5.454;2023-09-19T12:54:39;4.25;;;4.15;;
26820;SDS011;37186;51.394;5.454;2023-09-19T12:57:40;3.97;;;3.88;;
26820;SDS011;37186;51.394;5.454;2023-09-19T13:00:41;3.85;;;3.75;;
26820;SDS011;37186;51.394;5.454;2023-09-19T13:03:44;3.97;;;3.88;;
26820;SDS011;37186;51.394;5.454;2023-09-19T13:06:46;4.20;;;4.10;;
26820;SDS011;37186;51.394;5.454;2023-09-19T13:10:04;4.40;;;4.30;;
26820;SDS011;37186;51.394;5.454;2023-09-19T13:13:22;3.80;;;3.70;;
26820;SDS011;37186;51.394;5.454;2023-09-19T13:16:27;4.43;;;4.32;;
26820;SDS011;37186;51.394;5.454;2023-09-19T13:22:40;4.45;;;4.35;;
26820;SDS011;37186;51.394;5.454;2023-09-19T13:25:53;4.53;;;4.43;;
26820;SDS011;37186;51.394;5.454;2023-09-19T13:28:54;4.40;;;4.30;;
26820;SDS011;37186;51.394;5.454;2023-09-19T13:31:54;4.65;;;4.55;;
26820;SDS011;37186;51.394;5.454;2023-09-19T13:34:55;4.70;;;4.60;;
26820;SDS011;37186;51.394;5.454;2023-09-19T13:37:56;4.80;;;4.70;;
26820;SDS011;37186;51.394;5.454;2023-09-19T13:40:56;4.45;;;4.35;;
26820;SDS011;37186;51.394;5.454;2023-09-19T13:43:59;4.53;;;4.43;;
26820;SDS011;37186;51.394;5.454;2023-09-19T13:47:00;4.80;;;4.70;;
26820;SDS011;37186;51.394;5.454;2023-09-19T13:50:02;5.13;;;5.03;;
26820;SDS011;37186;51.394;5.454;2023-09-19T13:53:04;5.30;;;5.20;;
26820;SDS011;37186;51.394;5.454;2023-09-19T13:56:04;4.70;;;4.60;;
26820;SDS011;37186;51.394;5.454;2023-09-19T13:59:05;4.95;;;4.85;;
26820;SDS011;37186;51.394;5.454;2023-09-19T14:02:05;4.90;;;4.80;;
26820;SDS011;37186;51.394;5.454;2023-09-19T14:05:07;5.60;;;5.50;;
26820;SDS011;37186;51.394;5.454;2023-09-19T14:08:07;5.97;;;5.80;;
26820;SDS011;37186;51.394;5.454;2023-09-19T14:11:08;4.82;;;4.72;;
26820;SDS011;37186;51.394;5.454;2023-09-19T14:14:09;5.22;;;5.13;;
26820;SDS011;37186;51.394;5.454;2023-09-19T14:17:09;5.22;;;5.13;;
26820;SDS011;37186;51.394;5.454;2023-09-19T14:20:10;4.97;;;4.88;;
26820;SDS011;37186;51.394;5.454;2023-09-19T14:23:11;5.15;;;5.05;;
26820;SDS011;37186;51.394;5.454;2023-09-19T14:26:12;5.10;;;5.00;;
26820;SDS011;37186;51.394;5.454;2023-09-19T14:29:12;4.68;;;4.57;;
26820;SDS011;37186;51.394;5.454;2023-09-19T14:32:14;4.97;;;4.88;;
26820;SDS011;37186;51.394;5.454;2023-09-19T14:35:15;4.72;;;4.63;;
26820;SDS011;37186;51.394;5.454;2023-09-19T14:38:16;5.93;;;5.75;;
26820;SDS011;37186;51.394;5.454;2023-09-19T14:41:17;6.45;;;6.25;;
26820;SDS011;37186;51.394;5.454;2023-09-19T14:44:17;6.30;;;6.10;;
26820;SDS011;37186;51.394;5.454;2023-09-19T14:47:18;6.00;;;5.80;;
26820;SDS011;37186;51.394;5.454;2023-09-19T14:50:18;5.72;;;5.57;;
26820;SDS011;37186;51.394;5.454;2023-09-19T14:53:19;4.95;;;4.85;;
26820;SDS011;37186;51.394;5.454;2023-09-19T14:56:20;5.07;;;4.97;;
26820;SDS011;37186;51.394;5.454;2023-09-19T14:59:25;5.93;;;5.72;;
26820;SDS011;37186;51.394;5.454;2023-09-19T15:02:26;6.07;;;5.88;;
26820;SDS011;37186;51.394;5.454;2023-09-19T15:05:27;5.90;;;5.70;;
26820;SDS011;37186;51.394;5.454;2023-09-19T15:08:30;6.15;;;5.95;;
26820;SDS011;37186;51.394;5.454;2023-09-19T15:11:31;6.28;;;6.07;;
26820;SDS011;37186;51.394;5.454;2023-09-19T15:14:32;6.18;;;5.97;;
26820;SDS011;37186;51.394;5.454;2023-09-19T15:17:32;6.20;;;6.00;;
26820;SDS011;37186;51.394;5.454;2023-09-19T15:20:33;6.00;;;5.80;;
26820;SDS011;37186;51.394;5.454;2023-09-19T15:23:34;6.32;;;6.13;;
26820;SDS011;37186;51.394;5.454;2023-09-19T15:26:35;6.22;;;6.03;;
26820;SDS011;37186;51.394;5.454;2023-09-19T15:29:39;6.20;;;6.00;;
26820;SDS011;37186;51.394;5.454;2023-09-19T15:32:40;6.15;;;5.95;;
26820;SDS011;37186;51.394;5.454;2023-09-19T15:35:41;5.47;;;5.38;;
26820;SDS011;37186;51.394;5.454;2023-09-19T15:42:02;5.20;;;5.10;;
26820;SDS011;37186;51.394;5.454;2023-09-19T15:45:03;5.53;;;5.43;;
26820;SDS011;37186;51.394;5.454;2023-09-19T15:48:05;5.38;;;5.28;;
26820;SDS011;37186;51.394;5.454;2023-09-19T15:51:06;5.22;;;5.13;;
26820;SDS011;37186;51.394;5.454;2023-09-19T15:54:07;5.60;;;5.50;;
26820;SDS011;37186;51.394;5.454;2023-09-19T15:57:10;5.47;;;5.38;;
26820;SDS011;37186;51.394;5.454;2023-09-19T16:00:12;5.47;;;5.38;;
26820;SDS011;37186;51.394;5.454;2023-09-19T16:03:17;6.00;;;5.80;;
26820;SDS011;37186;51.394;5.454;2023-09-19T16:06:18;5.43;;;5.32;;
26820;SDS011;37186;51.394;5.454;2023-09-19T16:09:23;5.28;;;5.18;;
26820;SDS011;37186;51.394;5.454;2023-09-19T16:12:24;5.22;;;5.13;;
26820;SDS011;37186;51.394;5.454;2023-09-19T16:15:24;4.95;;;4.85;;
26820;SDS011;37186;51.394;5.454;2023-09-19T16:18:25;5.15;;;5.05;;
26820;SDS011;37186;51.394;5.454;2023-09-19T16:21:27;5.40;;;5.30;;
26820;SDS011;37186;51.394;5.454;2023-09-19T16:24:27;5.60;;;5.50;;
26820;SDS011;37186;51.394;5.454;2023-09-19T16:27:28;5.07;;;4.97;;
26820;SDS011;37186;51.394;5.454;2023-09-19T16:30:31;5.45;;;5.35;;
26820;SDS011;37186;51.394;5.454;2023-09-19T16:33:34;4.82;;;4.72;;
26820;SDS011;37186;51.394;5.454;2023-09-19T16:36:40;4.90;;;4.80;;
26820;SDS011;37186;51.394;5.454;2023-09-19T16:39:41;4.63;;;4.53;;
26820;SDS011;37186;51.394;5.454;2023-09-19T16:42:43;4.68;;;4.57;;
26820;SDS011;37186;51.394;5.454;2023-09-19T16:45:59;5.10;;;5.00;;
26820;SDS011;37186;51.394;5.454;2023-09-19T16:49:05;5.35;;;5.25;;
26820;SDS011;37186;51.394;5.454;2023-09-19T16:52:06;5.15;;;5.05;;
26820;SDS011;37186;51.394;5.454;2023-09-19T16:55:06;4.75;;;4.65;;
26820;SDS011;37186;51.394;5.454;2023-09-19T16:58:07;4.93;;;4.82;;
26820;SDS011;37186;51.394;5.454;2023-09-19T17:01:08;4.63;;;4.53;;
26820;SDS011;37186;51.394;5.454;2023-09-19T17:04:09;4.47;;;4.38;;
26820;SDS011;37186;51.394;5.454;2023-09-19T17:07:10;5.18;;;5.07;;
26820;SDS011;37186;51.394;5.454;2023-09-19T17:10:11;5.53;;;5.43;;
26820;SDS011;37186;51.394;5.454;2023-09-19T17:13:12;4.90;;;4.80;;
26820;SDS011;37186;51.394;5.454;2023-09-19T17:16:13;4.38;;;4.28;;
26820;SDS011;37186;51.394;5.454;2023-09-19T17:19:15;4.50;;;4.40;;
26820;SDS011;37186;51.394;5.454;2023-09-19T17:22:16;4.10;;;4.00;;
26820;SDS011;37186;51.394;5.454;2023-09-19T17:25:18;4.10;;;4.00;;
26820;SDS011;37186;51.394;5.454;2023-09-19T17:28:19;5.45;;;5.35;;
26820;SDS011;37186;51.394;5.454;2023-09-19T17:31:20;4.35;;;4.25;;
26820;SDS011;37186;51.394;5.454;2023-09-19T17:34:23;4.40;;;4.30;;
26820;SDS011;37186;51.394;5.454;2023-09-19T17:37:23;4.13;;;4.03;;
26820;SDS011;37186;51.394;5.454;2023-09-19T17:40:24;4.20;;;4.10;;
26820;SDS011;37186;51.394;5.454;2023-09-19T17:43:25;4.72;;;4.63;;
26820;SDS011;37186;51.394;5.454;2023-09-19T17:46:26;4.57;;;4.47;;
26820;SDS011;37186;51.394;5.454;2023-09-19T17:49:28;4.43;;;4.32;;
26820;SDS011;37186;51.394;5.454;2023-09-19T17:52:30;3.88;;;3.78;;
26820;SDS011;37186;51.394;5.454;2023-09-19T17:55:32;4.68;;;4.57;;
26820;SDS011;37186;51.394;5.454;2023-09-19T17:58:37;3.42;;;3.33;;
26820;SDS011;37186;51.394;5.454;2023-09-19T18:01:38;3.67;;;3.58;;
26820;SDS011;37186;51.394;5.454;2023-09-19T18:04:38;3.45;;;3.35;;
26820;SDS011;37186;51.394;5.454;2023-09-19T18:07:42;3.45;;;3.35;;
26820;SDS011;37186;51.394;5.454;2023-09-19T18:10:43;3.22;;;3.13;;
26820;SDS011;37186;51.394;5.454;2023-09-19T18:13:44;3.15;;;3.05;;
26820;SDS011;37186;51.394;5.454;2023-09-19T18:16:47;3.17;;;3.08;;
26820;SDS011;37186;51.394;5.454;2023-09-19T18:19:48;3.35;;;3.25;;
26820;SDS011;37186;51.394;5.454;2023-09-19T18:22:49;3.22;;;3.13;;
26820;SDS011;37186;51.394;5.454;2023-09-19T18:25:49;3.25;;;3.15;;
26820;SDS011;37186;51.394;5.454;2023-09-19T18:28:53;3.20;;;3.10;;
26820;SDS011;37186;51.394;5.454;2023-09-19T18:31:54;3.63;;;3.53;;
26820;SDS011;37186;51.394;5.454;2023-09-19T18:34:55;3.15;;;3.05;;
26820;SDS011;37186;51.394;5.454;2023-09-19T18:37:57;3.38;;;3.28;;
26820;SDS011;37186;51.394;5.454;2023-09-19T18:40:58;3.05;;;2.95;;
26820;SDS011;37186;51.394;5.454;2023-09-19T18:43:58;3.05;;;2.95;;
26820;SDS011;37186;51.394;5.454;2023-09-19T18:47:00;3.00;;;2.90;;
26820;SDS011;37186;51.394;5.454;2023-09-19T18:50:02;3.03;;;2.92;;
26820;SDS011;37186;51.394;5.454;2023-09-19T18:53:03;2.95;;;2.85;;
26820;SDS011;37186;51.394;5.454;2023-09-19T18:56:08;2.90;;;2.80;;
26820;SDS011;37186;51.394;5.454;2023-09-19T18:59:17;3.03;;;2.92;;
26820;SDS011;37186;51.394;5.454;2023-09-19T19:02:22;3.00;;;2.90;;
26820;SDS011;37186;51.394;5.454;2023-09-19T19:05:23;3.00;;;2.90;;